sensor_id;sensor_type;location;lat;lon;timestamp;temperature;humidity
69189;DHT22;56302;52.322;5.926;2024-01-30T00:01:22;3.70;99.90
69189;DHT22;56302;52.322;5.926;2024-01-30T00:03:48;3.70;99.90
69189;DHT22;56302;52.322;5.926;2024-01-30T00:06:14;3.70;99.90
69189;DHT22;56302;52.322;5.926;2024-01-30T00:08:39;3.80;99.90
69189;DHT22;56302;52.322;5.926;2024-01-30T00:11:05;3.80;99.90
69189;DHT22;56302;52.322;5.926;2024-01-30T00:13:30;3.70;99.90
69189;DHT22;56302;52.322;5.926;2024-01-30T00:15:56;3.60;99.90
69189;DHT22;56302;52.322;5.926;2024-01-30T00:18:21;3.70;99.90
69189;DHT22;56302;52.322;5.926;2024-01-30T00:20:47;3.70;99.90
69189;DHT22;56302;52.322;5.926;2024-01-30T00:23:13;3.60;99.90
69189;DHT22;56302;52.322;5.926;2024-01-30T00:25:38;3.60;99.90
69189;DHT22;56302;52.322;5.926;2024-01-30T00:28:04;3.60;99.90
69189;DHT22;56302;52.322;5.926;2024-01-30T00:30:30;3.50;99.90
69189;DHT22;56302;52.322;5.926;2024-01-30T00:32:55;3.50;99.90
69189;DHT22;56302;52.322;5.926;2024-01-30T00:35:21;3.50;99.90
69189;DHT22;56302;52.322;5.926;2024-01-30T00:37:48;3.50;99.90
69189;DHT22;56302;52.322;5.926;2024-01-30T00:40:14;3.60;99.90
69189;DHT22;56302;52.322;5.926;2024-01-30T00:42:41;3.50;99.90
69189;DHT22;56302;52.322;5.926;2024-01-30T00:45:15;3.60;99.90
69189;DHT22;56302;52.322;5.926;2024-01-30T00:47:41;3.60;99.90
69189;DHT22;56302;52.322;5.926;2024-01-30T00:50:07;3.70;99.90
69189;DHT22;56302;52.322;5.926;2024-01-30T00:52:33;3.80;99.90
69189;DHT22;56302;52.322;5.926;2024-01-30T00:54:59;3.80;99.90
69189;DHT22;56302;52.322;5.926;2024-01-30T00:57:25;3.70;99.90
69189;DHT22;56302;52.322;5.926;2024-01-30T00:59:50;3.60;99.90
69189;DHT22;56302;52.322;5.926;2024-01-30T01:02:16;3.60;99.90
69189;DHT22;56302;52.322;5.926;2024-01-30T01:04:43;3.60;99.90
69189;DHT22;56302;52.322;5.926;2024-01-30T01:07:09;3.60;99.90
69189;DHT22;56302;52.322;5.926;2024-01-30T01:09:35;3.50;99.90
69189;DHT22;56302;52.322;5.926;2024-01-30T01:12:01;3.50;99.90
69189;DHT22;56302;52.322;5.926;2024-01-30T01:14:26;3.60;99.90
69189;DHT22;56302;52.322;5.926;2024-01-30T01:16:52;3.60;99.90
69189;DHT22;56302;52.322;5.926;2024-01-30T01:19:18;3.60;99.90
69189;DHT22;56302;52.322;5.926;2024-01-30T01:21:43;3.60;99.90
69189;DHT22;56302;52.322;5.926;2024-01-30T01:24:09;3.70;99.90
69189;DHT22;56302;52.322;5.926;2024-01-30T01:26:34;3.70;99.90
69189;DHT22;56302;52.322;5.926;2024-01-30T01:29:00;3.70;99.90
69189;DHT22;56302;52.322;5.926;2024-01-30T01:31:25;3.70;99.90
69189;DHT22;56302;52.322;5.926;2024-01-30T01:33:54;3.70;99.90
69189;DHT22;56302;52.322;5.926;2024-01-30T01:36:20;3.60;99.90
69189;DHT22;56302;52.322;5.926;2024-01-30T01:38:46;3.50;99.90
69189;DHT22;56302;52.322;5.926;2024-01-30T01:41:11;3.50;99.90
69189;DHT22;56302;52.322;5.926;2024-01-30T01:43:37;3.40;99.90
69189;DHT22;56302;52.322;5.926;2024-01-30T01:46:05;3.30;99.90
69189;DHT22;56302;52.322;5.926;2024-01-30T01:48:30;3.30;99.90
69189;DHT22;56302;52.322;5.926;2024-01-30T01:50:57;3.30;99.90
69189;DHT22;56302;52.322;5.926;2024-01-30T01:53:23;3.20;99.90
69189;DHT22;56302;52.322;5.926;2024-01-30T01:55:48;3.20;99.90
69189;DHT22;56302;52.322;5.926;2024-01-30T01:58:14;3.30;99.90
69189;DHT22;56302;52.322;5.926;2024-01-30T02:00:40;3.20;99.90
69189;DHT22;56302;52.322;5.926;2024-01-30T02:03:09;3.20;99.90
69189;DHT22;56302;52.322;5.926;2024-01-30T02:05:36;3.20;99.90
69189;DHT22;56302;52.322;5.926;2024-01-30T02:08:02;3.20;99.90
69189;DHT22;56302;52.322;5.926;2024-01-30T02:10:28;3.20;99.90
69189;DHT22;56302;52.322;5.926;2024-01-30T02:12:54;3.20;99.90
69189;DHT22;56302;52.322;5.926;2024-01-30T02:15:19;3.10;99.90
69189;DHT22;56302;52.322;5.926;2024-01-30T02:17:45;3.10;99.90
69189;DHT22;56302;52.322;5.926;2024-01-30T02:20:11;3.10;99.90
69189;DHT22;56302;52.322;5.926;2024-01-30T02:22:37;3.10;99.90
69189;DHT22;56302;52.322;5.926;2024-01-30T02:25:04;3.10;99.90
69189;DHT22;56302;52.322;5.926;2024-01-30T02:27:29;3.00;99.90
69189;DHT22;56302;52.322;5.926;2024-01-30T02:29:55;3.00;99.90
69189;DHT22;56302;52.322;5.926;2024-01-30T02:32:20;2.90;99.90
69189;DHT22;56302;52.322;5.926;2024-01-30T02:34:46;2.90;99.90
69189;DHT22;56302;52.322;5.926;2024-01-30T02:37:11;2.90;99.90
69189;DHT22;56302;52.322;5.926;2024-01-30T02:39:37;2.90;99.90
69189;DHT22;56302;52.322;5.926;2024-01-30T02:42:03;3.00;99.90
69189;DHT22;56302;52.322;5.926;2024-01-30T02:44:28;3.10;99.90
69189;DHT22;56302;52.322;5.926;2024-01-30T02:46:54;3.00;99.90
69189;DHT22;56302;52.322;5.926;2024-01-30T02:49:20;3.00;99.90
69189;DHT22;56302;52.322;5.926;2024-01-30T02:51:46;3.00;99.90
69189;DHT22;56302;52.322;5.926;2024-01-30T02:54:12;3.10;99.90
69189;DHT22;56302;52.322;5.926;2024-01-30T02:56:37;3.00;99.90
69189;DHT22;56302;52.322;5.926;2024-01-30T02:59:03;3.00;99.90
69189;DHT22;56302;52.322;5.926;2024-01-30T03:01:28;3.00;99.90
69189;DHT22;56302;52.322;5.926;2024-01-30T03:03:54;3.00;99.90
69189;DHT22;56302;52.322;5.926;2024-01-30T03:06:19;3.00;99.90
69189;DHT22;56302;52.322;5.926;2024-01-30T03:08:45;3.10;99.90
69189;DHT22;56302;52.322;5.926;2024-01-30T03:11:11;3.10;99.90
69189;DHT22;56302;52.322;5.926;2024-01-30T03:13:36;3.10;99.90
69189;DHT22;56302;52.322;5.926;2024-01-30T03:16:02;3.10;99.90
69189;DHT22;56302;52.322;5.926;2024-01-30T03:18:28;3.20;99.90
69189;DHT22;56302;52.322;5.926;2024-01-30T03:20:53;3.30;99.90
69189;DHT22;56302;52.322;5.926;2024-01-30T03:23:19;3.30;99.90
69189;DHT22;56302;52.322;5.926;2024-01-30T03:25:44;3.20;99.90
69189;DHT22;56302;52.322;5.926;2024-01-30T03:28:10;3.30;99.90
69189;DHT22;56302;52.322;5.926;2024-01-30T03:30:36;3.20;99.90
69189;DHT22;56302;52.322;5.926;2024-01-30T03:33:02;3.20;99.90
69189;DHT22;56302;52.322;5.926;2024-01-30T03:35:28;3.20;99.90
69189;DHT22;56302;52.322;5.926;2024-01-30T03:37:53;3.20;99.90
69189;DHT22;56302;52.322;5.926;2024-01-30T03:40:19;3.20;99.90
69189;DHT22;56302;52.322;5.926;2024-01-30T03:42:44;3.20;99.90
69189;DHT22;56302;52.322;5.926;2024-01-30T03:45:10;3.10;99.90
69189;DHT22;56302;52.322;5.926;2024-01-30T03:47:36;3.20;99.90
69189;DHT22;56302;52.322;5.926;2024-01-30T03:50:02;3.30;99.90
69189;DHT22;56302;52.322;5.926;2024-01-30T03:52:27;3.30;99.90
69189;DHT22;56302;52.322;5.926;2024-01-30T03:54:53;3.40;99.90
69189;DHT22;56302;52.322;5.926;2024-01-30T03:57:18;3.40;99.90
69189;DHT22;56302;52.322;5.926;2024-01-30T03:59:44;3.40;99.90
69189;DHT22;56302;52.322;5.926;2024-01-30T04:02:12;3.50;99.90
69189;DHT22;56302;52.322;5.926;2024-01-30T04:04:38;3.50;99.90
69189;DHT22;56302;52.322;5.926;2024-01-30T04:07:04;3.50;99.90
69189;DHT22;56302;52.322;5.926;2024-01-30T04:09:29;3.60;99.90
69189;DHT22;56302;52.322;5.926;2024-01-30T04:11:55;3.70;99.90
69189;DHT22;56302;52.322;5.926;2024-01-30T04:14:20;3.60;99.90
69189;DHT22;56302;52.322;5.926;2024-01-30T04:16:46;3.60;99.90
69189;DHT22;56302;52.322;5.926;2024-01-30T04:19:11;3.70;99.90
69189;DHT22;56302;52.322;5.926;2024-01-30T04:21:37;3.80;99.90
69189;DHT22;56302;52.322;5.926;2024-01-30T04:24:03;3.60;99.90
69189;DHT22;56302;52.322;5.926;2024-01-30T04:26:28;3.50;99.90
69189;DHT22;56302;52.322;5.926;2024-01-30T04:28:54;3.50;99.90
69189;DHT22;56302;52.322;5.926;2024-01-30T04:31:20;3.50;99.90
69189;DHT22;56302;52.322;5.926;2024-01-30T04:33:45;3.40;99.90
69189;DHT22;56302;52.322;5.926;2024-01-30T04:36:11;3.50;99.90
69189;DHT22;56302;52.322;5.926;2024-01-30T04:38:37;3.50;99.90
69189;DHT22;56302;52.322;5.926;2024-01-30T04:41:04;3.50;99.90
69189;DHT22;56302;52.322;5.926;2024-01-30T04:43:30;3.60;99.90
69189;DHT22;56302;52.322;5.926;2024-01-30T04:45:56;3.60;99.90
69189;DHT22;56302;52.322;5.926;2024-01-30T04:48:21;3.60;99.90
69189;DHT22;56302;52.322;5.926;2024-01-30T04:50:47;3.60;99.90
69189;DHT22;56302;52.322;5.926;2024-01-30T04:53:13;3.60;99.90
69189;DHT22;56302;52.322;5.926;2024-01-30T04:55:38;3.60;99.90
69189;DHT22;56302;52.322;5.926;2024-01-30T04:58:04;3.60;99.90
69189;DHT22;56302;52.322;5.926;2024-01-30T05:00:29;3.60;99.90
69189;DHT22;56302;52.322;5.926;2024-01-30T05:02:55;3.60;99.90
69189;DHT22;56302;52.322;5.926;2024-01-30T05:05:21;3.70;99.90
69189;DHT22;56302;52.322;5.926;2024-01-30T05:07:47;3.70;99.90
69189;DHT22;56302;52.322;5.926;2024-01-30T05:10:13;3.80;99.90
69189;DHT22;56302;52.322;5.926;2024-01-30T05:12:39;3.90;99.90
69189;DHT22;56302;52.322;5.926;2024-01-30T05:15:05;4.00;99.90
69189;DHT22;56302;52.322;5.926;2024-01-30T05:17:30;4.10;99.90
69189;DHT22;56302;52.322;5.926;2024-01-30T05:19:56;4.20;99.90
69189;DHT22;56302;52.322;5.926;2024-01-30T05:22:22;4.20;99.90
69189;DHT22;56302;52.322;5.926;2024-01-30T05:24:47;4.20;99.90
69189;DHT22;56302;52.322;5.926;2024-01-30T05:27:13;4.10;99.90
69189;DHT22;56302;52.322;5.926;2024-01-30T05:29:41;4.10;99.90
69189;DHT22;56302;52.322;5.926;2024-01-30T05:32:07;4.20;99.90
69189;DHT22;56302;52.322;5.926;2024-01-30T05:34:33;4.20;99.90
69189;DHT22;56302;52.322;5.926;2024-01-30T05:36:58;4.30;99.90
69189;DHT22;56302;52.322;5.926;2024-01-30T05:39:24;4.40;99.90
69189;DHT22;56302;52.322;5.926;2024-01-30T05:41:50;4.50;99.90
69189;DHT22;56302;52.322;5.926;2024-01-30T05:44:16;4.70;99.90
69189;DHT22;56302;52.322;5.926;2024-01-30T05:46:41;4.80;99.90
69189;DHT22;56302;52.322;5.926;2024-01-30T05:49:07;5.00;99.90
69189;DHT22;56302;52.322;5.926;2024-01-30T05:51:33;5.10;99.90
69189;DHT22;56302;52.322;5.926;2024-01-30T05:53:58;5.30;99.90
69189;DHT22;56302;52.322;5.926;2024-01-30T05:56:24;5.60;99.90
69189;DHT22;56302;52.322;5.926;2024-01-30T05:58:50;5.70;99.90
69189;DHT22;56302;52.322;5.926;2024-01-30T06:01:16;5.80;99.90
69189;DHT22;56302;52.322;5.926;2024-01-30T06:03:41;5.80;99.90
69189;DHT22;56302;52.322;5.926;2024-01-30T06:06:08;5.90;99.90
69189;DHT22;56302;52.322;5.926;2024-01-30T06:08:34;6.00;99.90
69189;DHT22;56302;52.322;5.926;2024-01-30T06:11:00;6.10;99.90
69189;DHT22;56302;52.322;5.926;2024-01-30T06:13:26;6.00;99.90
69189;DHT22;56302;52.322;5.926;2024-01-30T06:15:52;6.00;99.90
69189;DHT22;56302;52.322;5.926;2024-01-30T06:18:17;5.90;99.90
69189;DHT22;56302;52.322;5.926;2024-01-30T06:20:43;5.90;99.90
69189;DHT22;56302;52.322;5.926;2024-01-30T06:23:09;5.80;99.90
69189;DHT22;56302;52.322;5.926;2024-01-30T06:25:35;5.80;99.90
69189;DHT22;56302;52.322;5.926;2024-01-30T06:28:01;5.80;99.90
69189;DHT22;56302;52.322;5.926;2024-01-30T06:30:26;5.70;99.90
69189;DHT22;56302;52.322;5.926;2024-01-30T06:32:52;5.60;99.90
69189;DHT22;56302;52.322;5.926;2024-01-30T06:35:17;5.50;99.90
69189;DHT22;56302;52.322;5.926;2024-01-30T06:37:43;5.50;99.90
69189;DHT22;56302;52.322;5.926;2024-01-30T06:40:09;5.60;99.90
69189;DHT22;56302;52.322;5.926;2024-01-30T06:42:35;5.70;99.90
69189;DHT22;56302;52.322;5.926;2024-01-30T06:45:00;5.80;99.90
69189;DHT22;56302;52.322;5.926;2024-01-30T06:47:26;5.90;99.90
69189;DHT22;56302;52.322;5.926;2024-01-30T06:49:52;6.10;99.90
69189;DHT22;56302;52.322;5.926;2024-01-30T06:52:17;6.40;99.90
69189;DHT22;56302;52.322;5.926;2024-01-30T06:54:43;6.50;99.90
69189;DHT22;56302;52.322;5.926;2024-01-30T06:57:08;6.60;99.90
69189;DHT22;56302;52.322;5.926;2024-01-30T06:59:37;6.80;99.90
69189;DHT22;56302;52.322;5.926;2024-01-30T07:02:03;6.90;99.90
69189;DHT22;56302;52.322;5.926;2024-01-30T07:04:28;7.00;99.90
69189;DHT22;56302;52.322;5.926;2024-01-30T07:06:54;7.10;99.90
69189;DHT22;56302;52.322;5.926;2024-01-30T07:09:19;7.10;99.90
69189;DHT22;56302;52.322;5.926;2024-01-30T07:11:45;7.20;99.90
69189;DHT22;56302;52.322;5.926;2024-01-30T07:14:11;7.30;99.90
69189;DHT22;56302;52.322;5.926;2024-01-30T07:16:36;7.40;99.90
69189;DHT22;56302;52.322;5.926;2024-01-30T07:19:02;7.40;99.90
69189;DHT22;56302;52.322;5.926;2024-01-30T07:21:28;7.40;99.90
69189;DHT22;56302;52.322;5.926;2024-01-30T07:23:57;7.50;99.90
69189;DHT22;56302;52.322;5.926;2024-01-30T07:26:23;7.50;99.90
69189;DHT22;56302;52.322;5.926;2024-01-30T07:28:48;7.60;99.90
69189;DHT22;56302;52.322;5.926;2024-01-30T07:31:15;7.60;99.90
69189;DHT22;56302;52.322;5.926;2024-01-30T07:33:41;7.60;99.60
69189;DHT22;56302;52.322;5.926;2024-01-30T07:36:06;7.70;99.50
69189;DHT22;56302;52.322;5.926;2024-01-30T07:38:32;7.70;99.20
69189;DHT22;56302;52.322;5.926;2024-01-30T07:40:58;7.80;99.00
69189;DHT22;56302;52.322;5.926;2024-01-30T07:43:23;7.80;98.80
69189;DHT22;56302;52.322;5.926;2024-01-30T07:45:49;7.80;98.80
69189;DHT22;56302;52.322;5.926;2024-01-30T07:48:16;7.90;98.30
69189;DHT22;56302;52.322;5.926;2024-01-30T07:50:41;7.90;98.30
69189;DHT22;56302;52.322;5.926;2024-01-30T07:53:07;7.90;98.10
69189;DHT22;56302;52.322;5.926;2024-01-30T07:55:33;8.00;97.90
69189;DHT22;56302;52.322;5.926;2024-01-30T07:57:58;8.00;97.80
69189;DHT22;56302;52.322;5.926;2024-01-30T08:00:24;8.00;97.70
69189;DHT22;56302;52.322;5.926;2024-01-30T08:02:53;8.00;97.40
69189;DHT22;56302;52.322;5.926;2024-01-30T08:05:19;8.10;97.30
69189;DHT22;56302;52.322;5.926;2024-01-30T08:07:47;8.10;97.30
69189;DHT22;56302;52.322;5.926;2024-01-30T08:10:14;8.10;97.20
69189;DHT22;56302;52.322;5.926;2024-01-30T08:12:40;8.20;97.00
69189;DHT22;56302;52.322;5.926;2024-01-30T08:15:06;8.20;96.90
69189;DHT22;56302;52.322;5.926;2024-01-30T08:17:31;8.20;96.80
69189;DHT22;56302;52.322;5.926;2024-01-30T08:19:57;8.30;96.80
69189;DHT22;56302;52.322;5.926;2024-01-30T08:22:23;8.30;96.70
69189;DHT22;56302;52.322;5.926;2024-01-30T08:24:48;8.30;96.70
69189;DHT22;56302;52.322;5.926;2024-01-30T08:27:14;8.30;96.70
69189;DHT22;56302;52.322;5.926;2024-01-30T08:29:40;8.40;96.70
69189;DHT22;56302;52.322;5.926;2024-01-30T08:32:06;8.50;96.50
69189;DHT22;56302;52.322;5.926;2024-01-30T08:34:32;8.60;96.40
69189;DHT22;56302;52.322;5.926;2024-01-30T08:36:57;8.60;96.40
69189;DHT22;56302;52.322;5.926;2024-01-30T08:39:23;8.70;96.50
69189;DHT22;56302;52.322;5.926;2024-01-30T08:41:48;8.80;96.40
69189;DHT22;56302;52.322;5.926;2024-01-30T08:44:14;8.80;96.30
69189;DHT22;56302;52.322;5.926;2024-01-30T08:46:40;8.90;96.10
69189;DHT22;56302;52.322;5.926;2024-01-30T08:49:05;8.90;96.00
69189;DHT22;56302;52.322;5.926;2024-01-30T08:51:31;9.00;95.90
69189;DHT22;56302;52.322;5.926;2024-01-30T08:53:56;9.10;95.70
69189;DHT22;56302;52.322;5.926;2024-01-30T08:56:22;9.10;95.50
69189;DHT22;56302;52.322;5.926;2024-01-30T08:58:48;9.20;95.50
69189;DHT22;56302;52.322;5.926;2024-01-30T09:01:14;9.20;95.30
69189;DHT22;56302;52.322;5.926;2024-01-30T09:03:39;9.30;94.90
69189;DHT22;56302;52.322;5.926;2024-01-30T09:06:12;9.40;94.90
69189;DHT22;56302;52.322;5.926;2024-01-30T09:08:38;9.40;94.80
69189;DHT22;56302;52.322;5.926;2024-01-30T09:11:14;9.40;94.80
69189;DHT22;56302;52.322;5.926;2024-01-30T09:13:40;9.50;94.50
69189;DHT22;56302;52.322;5.926;2024-01-30T09:16:06;9.60;94.50
69189;DHT22;56302;52.322;5.926;2024-01-30T09:18:32;9.60;94.40
69189;DHT22;56302;52.322;5.926;2024-01-30T09:20:58;9.60;94.30
69189;DHT22;56302;52.322;5.926;2024-01-30T09:23:24;9.60;94.30
69189;DHT22;56302;52.322;5.926;2024-01-30T09:25:50;9.70;94.20
69189;DHT22;56302;52.322;5.926;2024-01-30T09:28:17;9.70;94.20
69189;DHT22;56302;52.322;5.926;2024-01-30T09:30:43;9.80;93.70
69189;DHT22;56302;52.322;5.926;2024-01-30T09:33:08;9.90;93.70
69189;DHT22;56302;52.322;5.926;2024-01-30T09:35:34;9.90;93.70
69189;DHT22;56302;52.322;5.926;2024-01-30T09:37:59;9.90;93.40
69189;DHT22;56302;52.322;5.926;2024-01-30T09:40:25;10.00;93.50
69189;DHT22;56302;52.322;5.926;2024-01-30T09:42:51;10.10;93.20
69189;DHT22;56302;52.322;5.926;2024-01-30T09:45:24;10.20;93.20
69189;DHT22;56302;52.322;5.926;2024-01-30T09:47:50;10.20;93.00
69189;DHT22;56302;52.322;5.926;2024-01-30T09:50:16;10.30;92.90
69189;DHT22;56302;52.322;5.926;2024-01-30T09:52:45;10.30;92.60
69189;DHT22;56302;52.322;5.926;2024-01-30T09:55:11;10.40;92.30
69189;DHT22;56302;52.322;5.926;2024-01-30T09:57:37;10.50;92.40
69189;DHT22;56302;52.322;5.926;2024-01-30T10:00:04;10.50;92.00
69189;DHT22;56302;52.322;5.926;2024-01-30T10:02:31;10.60;91.70
69189;DHT22;56302;52.322;5.926;2024-01-30T10:04:57;10.60;91.60
69189;DHT22;56302;52.322;5.926;2024-01-30T10:07:23;10.60;91.40
69189;DHT22;56302;52.322;5.926;2024-01-30T10:09:48;10.60;91.20
69189;DHT22;56302;52.322;5.926;2024-01-30T10:12:15;10.60;91.00
69189;DHT22;56302;52.322;5.926;2024-01-30T10:14:42;10.60;91.10
69189;DHT22;56302;52.322;5.926;2024-01-30T10:17:08;10.60;91.10
69189;DHT22;56302;52.322;5.926;2024-01-30T10:19:36;10.60;91.10
69189;DHT22;56302;52.322;5.926;2024-01-30T10:22:02;10.60;90.90
69189;DHT22;56302;52.322;5.926;2024-01-30T10:24:28;10.60;91.00
69189;DHT22;56302;52.322;5.926;2024-01-30T10:26:55;10.50;90.90
69189;DHT22;56302;52.322;5.926;2024-01-30T10:29:20;10.50;90.80
69189;DHT22;56302;52.322;5.926;2024-01-30T10:31:46;10.50;91.00
69189;DHT22;56302;52.322;5.926;2024-01-30T10:34:13;10.50;91.00
69189;DHT22;56302;52.322;5.926;2024-01-30T10:36:43;10.50;90.80
69189;DHT22;56302;52.322;5.926;2024-01-30T10:39:14;10.50;90.90
69189;DHT22;56302;52.322;5.926;2024-01-30T10:41:47;10.50;91.00
69189;DHT22;56302;52.322;5.926;2024-01-30T10:44:18;10.50;90.90
69189;DHT22;56302;52.322;5.926;2024-01-30T10:46:51;10.50;91.00
69189;DHT22;56302;52.322;5.926;2024-01-30T10:49:25;10.50;90.90
69189;DHT22;56302;52.322;5.926;2024-01-30T10:51:51;10.50;90.60
69189;DHT22;56302;52.322;5.926;2024-01-30T10:54:18;10.60;90.40
69189;DHT22;56302;52.322;5.926;2024-01-30T10:56:45;10.50;90.60
69189;DHT22;56302;52.322;5.926;2024-01-30T10:59:12;10.50;90.40
69189;DHT22;56302;52.322;5.926;2024-01-30T11:01:38;10.60;90.50
69189;DHT22;56302;52.322;5.926;2024-01-30T11:04:04;10.60;90.50
69189;DHT22;56302;52.322;5.926;2024-01-30T11:06:30;10.60;90.50
69189;DHT22;56302;52.322;5.926;2024-01-30T11:09:03;10.70;90.50
69189;DHT22;56302;52.322;5.926;2024-01-30T11:11:29;10.70;90.00
69189;DHT22;56302;52.322;5.926;2024-01-30T11:13:55;10.70;89.70
69189;DHT22;56302;52.322;5.926;2024-01-30T11:16:20;10.70;89.60
69189;DHT22;56302;52.322;5.926;2024-01-30T11:18:50;10.80;89.30
69189;DHT22;56302;52.322;5.926;2024-01-30T11:21:17;10.80;89.20
69189;DHT22;56302;52.322;5.926;2024-01-30T11:23:42;10.80;88.90
69189;DHT22;56302;52.322;5.926;2024-01-30T11:26:10;10.80;88.50
69189;DHT22;56302;52.322;5.926;2024-01-30T11:28:38;10.90;88.20
69189;DHT22;56302;52.322;5.926;2024-01-30T11:31:07;10.90;87.70
69189;DHT22;56302;52.322;5.926;2024-01-30T11:33:33;10.80;87.40
69189;DHT22;56302;52.322;5.926;2024-01-30T11:36:00;10.90;87.50
69189;DHT22;56302;52.322;5.926;2024-01-30T11:38:27;10.90;87.60
69189;DHT22;56302;52.322;5.926;2024-01-30T11:40:54;11.00;87.60
69189;DHT22;56302;52.322;5.926;2024-01-30T11:43:20;11.10;87.30
69189;DHT22;56302;52.322;5.926;2024-01-30T11:45:45;11.10;86.80
69189;DHT22;56302;52.322;5.926;2024-01-30T11:48:12;11.10;86.10
69189;DHT22;56302;52.322;5.926;2024-01-30T11:50:38;11.10;85.50
69189;DHT22;56302;52.322;5.926;2024-01-30T11:53:05;11.10;85.00
69189;DHT22;56302;52.322;5.926;2024-01-30T11:55:31;11.10;85.10
69189;DHT22;56302;52.322;5.926;2024-01-30T11:57:57;11.10;85.00
69189;DHT22;56302;52.322;5.926;2024-01-30T12:00:23;11.10;84.50
69189;DHT22;56302;52.322;5.926;2024-01-30T12:02:50;11.20;83.90
69189;DHT22;56302;52.322;5.926;2024-01-30T12:05:19;11.20;84.00
69189;DHT22;56302;52.322;5.926;2024-01-30T12:07:45;11.20;84.00
69189;DHT22;56302;52.322;5.926;2024-01-30T12:10:12;11.20;83.00
69189;DHT22;56302;52.322;5.926;2024-01-30T12:12:40;11.20;82.40
69189;DHT22;56302;52.322;5.926;2024-01-30T12:15:07;11.20;82.20
69189;DHT22;56302;52.322;5.926;2024-01-30T12:17:34;11.20;82.50
69189;DHT22;56302;52.322;5.926;2024-01-30T12:20:12;11.20;82.00
69189;DHT22;56302;52.322;5.926;2024-01-30T12:22:43;11.20;82.30
69189;DHT22;56302;52.322;5.926;2024-01-30T12:25:16;11.10;81.60
69189;DHT22;56302;52.322;5.926;2024-01-30T12:27:43;11.10;81.90
69189;DHT22;56302;52.322;5.926;2024-01-30T12:30:13;11.10;81.00
69189;DHT22;56302;52.322;5.926;2024-01-30T12:32:41;11.10;79.80
69189;DHT22;56302;52.322;5.926;2024-01-30T12:35:17;11.00;78.20
69189;DHT22;56302;52.322;5.926;2024-01-30T12:37:44;11.00;79.40
69189;DHT22;56302;52.322;5.926;2024-01-30T12:40:11;10.90;78.90
69189;DHT22;56302;52.322;5.926;2024-01-30T12:42:40;10.80;78.10
69189;DHT22;56302;52.322;5.926;2024-01-30T12:45:07;10.80;80.20
69189;DHT22;56302;52.322;5.926;2024-01-30T12:47:33;10.70;80.10
69189;DHT22;56302;52.322;5.926;2024-01-30T12:49:59;10.70;80.60
69189;DHT22;56302;52.322;5.926;2024-01-30T12:52:24;10.60;80.80
69189;DHT22;56302;52.322;5.926;2024-01-30T12:54:51;10.60;80.60
69189;DHT22;56302;52.322;5.926;2024-01-30T12:57:17;10.50;80.60
69189;DHT22;56302;52.322;5.926;2024-01-30T12:59:44;10.40;79.70
69189;DHT22;56302;52.322;5.926;2024-01-30T13:02:10;10.40;80.20
69189;DHT22;56302;52.322;5.926;2024-01-30T13:04:36;10.30;80.90
69189;DHT22;56302;52.322;5.926;2024-01-30T13:07:02;10.20;81.00
69189;DHT22;56302;52.322;5.926;2024-01-30T13:09:29;10.20;80.40
69189;DHT22;56302;52.322;5.926;2024-01-30T13:11:55;10.10;80.90
69189;DHT22;56302;52.322;5.926;2024-01-30T13:14:21;10.10;82.10
69189;DHT22;56302;52.322;5.926;2024-01-30T13:16:47;9.90;83.00
69189;DHT22;56302;52.322;5.926;2024-01-30T13:19:12;9.80;84.00
69189;DHT22;56302;52.322;5.926;2024-01-30T13:21:38;9.70;83.70
69189;DHT22;56302;52.322;5.926;2024-01-30T13:24:04;9.70;83.30
69189;DHT22;56302;52.322;5.926;2024-01-30T13:26:32;9.70;83.40
69189;DHT22;56302;52.322;5.926;2024-01-30T13:28:58;9.70;83.30
69189;DHT22;56302;52.322;5.926;2024-01-30T13:31:23;9.70;83.20
69189;DHT22;56302;52.322;5.926;2024-01-30T13:33:49;9.70;83.30
69189;DHT22;56302;52.322;5.926;2024-01-30T13:36:15;9.70;83.60
69189;DHT22;56302;52.322;5.926;2024-01-30T13:38:40;9.80;82.90
69189;DHT22;56302;52.322;5.926;2024-01-30T13:41:06;9.60;83.70
69189;DHT22;56302;52.322;5.926;2024-01-30T13:43:32;9.60;84.00
69189;DHT22;56302;52.322;5.926;2024-01-30T13:45:58;9.60;84.60
69189;DHT22;56302;52.322;5.926;2024-01-30T13:48:24;9.70;84.60
69189;DHT22;56302;52.322;5.926;2024-01-30T13:50:49;9.70;84.80
69189;DHT22;56302;52.322;5.926;2024-01-30T13:53:15;9.70;84.50
69189;DHT22;56302;52.322;5.926;2024-01-30T13:55:41;9.60;84.10
69189;DHT22;56302;52.322;5.926;2024-01-30T13:58:07;9.60;84.00
69189;DHT22;56302;52.322;5.926;2024-01-30T14:00:33;9.60;84.10
69189;DHT22;56302;52.322;5.926;2024-01-30T14:02:59;9.60;83.90
69189;DHT22;56302;52.322;5.926;2024-01-30T14:05:26;9.60;84.10
69189;DHT22;56302;52.322;5.926;2024-01-30T14:07:53;9.50;84.50
69189;DHT22;56302;52.322;5.926;2024-01-30T14:10:19;9.40;85.20
69189;DHT22;56302;52.322;5.926;2024-01-30T14:12:45;9.40;85.50
69189;DHT22;56302;52.322;5.926;2024-01-30T14:15:10;9.30;85.90
69189;DHT22;56302;52.322;5.926;2024-01-30T14:17:38;9.30;86.40
69189;DHT22;56302;52.322;5.926;2024-01-30T14:20:03;9.20;86.50
69189;DHT22;56302;52.322;5.926;2024-01-30T14:22:30;9.20;86.70
69189;DHT22;56302;52.322;5.926;2024-01-30T14:24:56;9.20;87.10
69189;DHT22;56302;52.322;5.926;2024-01-30T14:27:21;9.20;87.00
69189;DHT22;56302;52.322;5.926;2024-01-30T14:29:47;9.20;87.30
69189;DHT22;56302;52.322;5.926;2024-01-30T14:32:13;9.10;87.30
69189;DHT22;56302;52.322;5.926;2024-01-30T14:34:38;9.10;87.70
69189;DHT22;56302;52.322;5.926;2024-01-30T14:37:04;9.00;88.30
69189;DHT22;56302;52.322;5.926;2024-01-30T14:39:30;8.90;88.90
69189;DHT22;56302;52.322;5.926;2024-01-30T14:41:56;8.90;89.60
69189;DHT22;56302;52.322;5.926;2024-01-30T14:44:21;8.80;90.20
69189;DHT22;56302;52.322;5.926;2024-01-30T14:46:48;8.80;90.60
69189;DHT22;56302;52.322;5.926;2024-01-30T14:49:14;8.70;90.80
69189;DHT22;56302;52.322;5.926;2024-01-30T14:51:44;8.70;91.10
69189;DHT22;56302;52.322;5.926;2024-01-30T14:54:10;8.60;91.30
69189;DHT22;56302;52.322;5.926;2024-01-30T14:56:36;8.60;91.60
69189;DHT22;56302;52.322;5.926;2024-01-30T14:59:02;8.60;91.60
69189;DHT22;56302;52.322;5.926;2024-01-30T15:01:28;8.60;91.50
69189;DHT22;56302;52.322;5.926;2024-01-30T15:03:53;8.60;91.70
69189;DHT22;56302;52.322;5.926;2024-01-30T15:06:21;8.50;91.70
69189;DHT22;56302;52.322;5.926;2024-01-30T15:08:50;8.50;91.70
69189;DHT22;56302;52.322;5.926;2024-01-30T15:11:15;8.50;91.80
69189;DHT22;56302;52.322;5.926;2024-01-30T15:13:41;8.50;92.00
69189;DHT22;56302;52.322;5.926;2024-01-30T15:16:07;8.50;92.30
69189;DHT22;56302;52.322;5.926;2024-01-30T15:18:32;8.40;92.60
69189;DHT22;56302;52.322;5.926;2024-01-30T15:20:58;8.40;93.40
69189;DHT22;56302;52.322;5.926;2024-01-30T15:23:24;8.30;93.30
69189;DHT22;56302;52.322;5.926;2024-01-30T15:25:49;8.30;93.70
69189;DHT22;56302;52.322;5.926;2024-01-30T15:28:15;8.30;94.10
69189;DHT22;56302;52.322;5.926;2024-01-30T15:30:41;8.20;94.40
69189;DHT22;56302;52.322;5.926;2024-01-30T15:33:10;8.20;94.70
69189;DHT22;56302;52.322;5.926;2024-01-30T15:35:36;8.10;94.90